Time;durP1;ratioP1;P1;durP2;ratioP2;P2;SDS_P1;SDS_P2;PMS_P1;PMS_P2;Temp;Humidity;BMP_temperature;BMP_pressure;BME280_temperature;BME280_humidity;BME280_pressure;Samples;Min_cycle;Max_cycle;Signal;HPM_P1;HPM_P2
2021/03/16 00:05:07;;;;;;;6.32;2.53;;;;;;;4.71;83.49;100667.00;20985714;28;20060;-71
2021/03/16 00:15:09;;;;;;;8.13;2.50;;;;;;;4.66;83.53;100686.16;20985582;28;20051;-70
2021/03/16 00:25:11;;;;;;;10.40;2.35;;;;;;;4.67;84.10;100693.88;20984933;28;20051;-70
2021/03/16 00:35:12;;;;;;;10.10;2.70;;;;;;;4.65;84.82;100680.13;20976579;28;20115;-70
2021/03/16 00:45:14;;;;;;;11.98;2.60;;;;;;;4.65;82.89;100690.50;20901574;28;20496;-70
2021/03/16 00:55:15;;;;;;;8.90;2.10;;;;;;;4.56;82.87;100705.44;20901616;28;20511;-70
2021/03/16 01:05:15;;;;;;;9.52;2.42;;;;;;;4.62;82.68;100715.66;20900645;28;20045;-70
2021/03/16 01:15:18;;;;;;;9.77;2.55;;;;;;;4.57;83.14;100722.69;20901971;28;20052;-70
2021/03/16 01:25:19;;;;;;;10.85;2.13;;;;;;;4.53;84.05;100734.00;20910131;28;20049;-70
2021/03/16 01:35:21;;;;;;;9.55;2.30;;;;;;;4.51;82.71;100725.44;20914985;28;20120;-70
2021/03/16 01:45:22;;;;;;;6.57;2.05;;;;;;;4.53;82.04;100731.41;20896551;28;20104;-70
2021/03/16 01:55:25;;;;;;;9.63;2.00;;;;;;;4.44;81.76;100727.31;20915385;28;20045;-71
2021/03/16 02:05:26;;;;;;;9.73;1.85;;;;;;;4.63;80.41;100720.78;20937395;28;20037;-71
2021/03/16 02:15:35;;;;;;;7.13;1.70;;;;;;;4.61;78.57;100725.16;20922826;28;20397;-70
2021/03/16 02:25:55;;;;;;;10.05;1.73;;;;;;;4.58;78.65;100722.63;20910690;28;20045;-70
2021/03/16 02:35:59;;;;;;;6.68;1.30;;;;;;;4.65;75.30;100725.94;20931557;28;20037;-71
2021/03/16 02:46:04;;;;;;;11.20;2.05;;;;;;;4.67;75.24;100739.72;20992084;28;20059;-70
2021/03/16 02:56:11;;;;;;;6.43;1.48;;;;;;;4.67;74.24;100742.31;20991044;28;20067;-71
2021/03/16 03:06:14;;;;;;;9.57;1.67;;;;;;;4.69;73.55;100743.13;20989463;28;20048;-69
2021/03/16 03:16:15;;;;;;;8.48;1.50;;;;;;;4.66;72.68;100758.75;20989084;28;20048;-72
2021/03/16 03:26:26;;;;;;;4.60;1.00;;;;;;;4.63;73.07;100780.41;20987973;28;20044;-69
2021/03/16 03:36:27;;;;;;;7.38;1.52;;;;;;;4.63;74.92;100800.28;20987262;28;20044;-70
2021/03/16 03:46:32;;;;;;;9.40;1.63;;;;;;;4.43;78.77;100808.53;20986560;28;20393;-71
2021/03/16 03:56:35;;;;;;;8.97;1.47;;;;;;;4.41;80.45;100818.09;20986557;28;20098;-70
2021/03/16 04:06:37;;;;;;;6.65;2.08;;;;;;;4.36;81.37;100825.13;20967545;28;20068;-69
2021/03/16 04:16:39;;;;;;;8.05;1.90;;;;;;;4.37;80.14;100831.16;20985669;28;20044;-70
2021/03/16 04:26:40;;;;;;;9.70;1.88;;;;;;;4.26;81.17;100832.25;20981893;28;20045;-70
2021/03/16 04:36:41;;;;;;;6.57;1.52;;;;;;;4.39;79.69;100835.41;20984216;28;20040;-70
2021/03/16 04:46:43;;;;;;;6.22;1.60;;;;;;;4.30;80.96;100839.06;20984513;28;20480;-71
2021/03/16 04:56:44;;;;;;;5.70;1.70;;;;;;;4.27;81.47;100851.22;20988506;28;20075;-70
2021/03/16 05:06:45;;;;;;;13.05;4.38;;;;;;;4.24;82.35;100854.72;20981160;28;20048;-71
2021/03/16 05:16:45;;;;;;;7.82;2.45;;;;;;;4.24;82.68;100864.25;20999752;28;20055;-71
2021/03/16 05:26:47;;;;;;;7.88;2.30;;;;;;;4.16;83.31;100872.19;20997738;28;20084;-72
2021/03/16 05:36:48;;;;;;;8.45;2.10;;;;;;;4.20;82.78;100888.50;20996556;28;20041;-70
2021/03/16 05:46:49;;;;;;;13.75;2.42;;;;;;;4.21;82.05;100890.22;20996242;28;20432;-71
2021/03/16 05:56:50;;;;;;;10.32;2.50;;;;;;;4.27;81.34;100906.47;20996163;28;20127;-71
2021/03/16 06:06:57;;;;;;;7.18;2.40;;;;;;;4.33;80.01;100902.91;20993947;28;20043;-69
2021/03/16 06:16:59;;;;;;;8.73;1.73;;;;;;;4.43;80.44;100922.56;20976162;28;20040;-70
2021/03/16 06:27:00;;;;;;;7.32;2.03;;;;;;;4.44;80.40;100936.38;20990819;28;20411;-70
2021/03/16 06:37:21;;;;;;;9.48;1.90;;;;;;;4.44;81.00;100954.53;20992194;28;20120;-71
2021/03/16 06:47:22;;;;;;;7.45;2.17;;;;;;;4.50;82.38;100964.78;20944701;22;20051;-70
2021/03/16 06:57:24;;;;;;;11.95;2.17;;;;;;;4.48;82.37;100987.25;20830887;28;20226;-69
2021/03/16 07:07:44;;;;;;;11.15;2.60;;;;;;;4.63;82.47;100992.13;20918792;28;20045;-67
2021/03/16 07:17:45;;;;;;;10.73;2.17;;;;;;;4.79;81.69;101000.44;20906060;28;20053;-67
2021/03/16 07:27:47;;;;;;;12.98;2.90;;;;;;;4.89;80.29;101022.72;20905512;28;20448;-67
2021/03/16 07:38:05;;;;;;;13.65;2.47;;;;;;;5.05;80.74;101040.53;20904746;28;20041;-68
2021/03/16 07:48:14;;;;;;;8.13;2.78;;;;;;;5.13;80.27;101045.53;20892338;28;20052;-70
2021/03/16 07:58:24;;;;;;;5.70;2.00;;;;;;;5.20;78.61;101048.84;20869899;28;20045;-68
2021/03/16 08:08:41;;;;;;;7.82;3.22;;;;;;;5.41;77.39;101053.59;20849862;28;20048;-68
2021/03/16 08:18:42;;;;;;;16.20;2.22;;;;;;;5.40;75.48;101070.03;20942264;28;20098;-68
2021/03/16 08:28:47;;;;;;;14.25;2.10;;;;;;;5.66;73.83;101078.09;20943649;28;20048;-68
2021/03/16 08:38:55;;;;;;;6.53;1.73;;;;;;;5.87;73.12;101072.44;20965547;28;20041;-67
2021/03/16 08:48:56;;;;;;;9.13;2.28;;;;;;;6.07;72.41;101068.47;20936734;28;20049;-68
2021/03/16 08:59:03;;;;;;;12.68;2.08;;;;;;;5.96;71.39;101085.19;20968459;28;20051;-68
2021/03/16 09:09:26;;;;;;;12.95;2.28;;;;;;;6.03;70.92;101085.91;20966893;28;20504;-69
2021/03/16 09:19:31;;;;;;;11.48;1.90;;;;;;;5.96;70.42;101105.97;20907619;28;20049;-71
2021/03/16 09:29:35;;;;;;;12.40;1.98;;;;;;;6.07;70.49;101113.50;20940293;28;20084;-69
2021/03/16 09:39:58;;;;;;;11.15;2.42;;;;;;;6.20;69.92;101111.44;20954235;28;20067;-69
2021/03/16 09:50:11;;;;;;;8.13;1.92;;;;;;;6.27;68.95;101100.88;20988172;28;20048;-69
2021/03/16 10:00:14;;;;;;;6.40;1.92;;;;;;;6.63;68.45;101106.00;20939661;28;20060;-69
2021/03/16 10:10:19;;;;;;;6.88;1.48;;;;;;;7.00;67.20;101101.50;20927540;28;20519;-69
2021/03/16 10:20:29;;;;;;;6.07;1.42;;;;;;;7.09;63.74;101095.19;20902362;28;20124;-69
2021/03/16 10:30:56;;;;;;;7.80;1.50;;;;;;;7.53;54.17;101091.25;20986901;28;20044;-69
2021/03/16 10:40:58;;;;;;;4.57;1.17;;;;;;;7.50;54.50;101094.81;20973319;28;20048;-69
2021/03/16 10:51:01;;;;;;;5.20;1.40;;;;;;;7.94;54.89;101098.63;20967628;28;20073;-69
2021/03/16 11:01:03;;;;;;;9.40;1.33;;;;;;;8.08;55.50;101098.16;20855571;28;20048;-69
2021/03/16 11:11:05;;;;;;;9.10;1.80;;;;;;;7.52;55.47;101098.22;20908355;28;20488;-68
2021/03/16 11:21:06;;;;;;;7.18;1.92;;;;;;;7.53;57.62;101099.91;20908340;28;20447;-69
2021/03/16 11:31:07;;;;;;;8.75;2.25;;;;;;;7.65;58.19;101080.47;20906754;28;20055;-69
2021/03/16 11:41:25;;;;;;;9.23;1.80;;;;;;;7.92;57.79;101068.31;20978184;28;20056;-68
2021/03/16 11:51:26;;;;;;;5.65;1.30;;;;;;;8.38;56.16;101059.84;20943620;28;20463;-69
2021/03/16 12:01:27;;;;;;;9.98;2.20;;;;;;;8.54;56.31;101066.19;20925272;28;20051;-69
2021/03/16 12:11:34;;;;;;;6.32;1.60;;;;;;;8.72;54.59;101072.53;20970744;28;20067;-69
2021/03/16 12:21:35;;;;;;;9.45;2.13;;;;;;;8.35;54.55;101058.16;20903787;28;20049;-70
2021/03/16 12:31:36;;;;;;;7.30;1.63;;;;;;;8.54;53.66;101047.94;20918317;28;20056;-68
2021/03/16 12:41:38;;;;;;;11.10;1.95;;;;;;;8.37;54.77;101032.91;20827320;28;20144;-68
2021/03/16 12:51:38;;;;;;;8.35;1.77;;;;;;;8.43;55.97;101024.00;20819250;28;20132;-68
2021/03/16 13:01:39;;;;;;;11.18;2.17;;;;;;;8.89;53.90;101016.19;20826853;28;20103;-69
2021/03/16 13:11:41;;;;;;;23.73;4.07;;;;;;;9.04;55.91;101006.91;20926832;28;20107;-69
2021/03/16 13:21:45;;;;;;;10.63;2.03;;;;;;;8.76;54.88;101007.13;20944178;28;20048;-69
2021/03/16 13:31:46;;;;;;;5.97;1.63;;;;;;;9.14;53.66;101000.47;20979362;28;20053;-69
2021/03/16 13:41:47;;;;;;;5.90;1.88;;;;;;;9.11;54.37;100992.72;20924124;28;20056;-69
2021/03/16 13:51:51;;;;;;;8.02;2.28;;;;;;;9.08;53.84;100971.97;20916681;28;20098;-70
2021/03/16 14:01:54;;;;;;;11.05;2.13;;;;;;;9.18;54.74;100977.69;20965153;28;20069;-69
2021/03/16 14:12:00;;;;;;;10.93;1.83;;;;;;;8.80;55.30;100968.69;20982674;28;20565;-69
2021/03/16 14:22:01;;;;;;;9.35;1.90;;;;;;;8.19;58.38;100976.13;20913051;28;20056;-69
2021/03/16 14:32:02;;;;;;;7.85;2.40;;;;;;;7.64;65.91;100975.41;20914716;28;20071;-69
2021/03/16 14:42:04;;;;;;;7.53;2.13;;;;;;;7.88;64.61;100968.50;20972595;28;20044;-69
2021/03/16 14:52:05;;;;;;;7.90;2.50;;;;;;;8.15;65.16;100972.78;20935997;28;20068;-70
2021/03/16 15:02:06;;;;;;;6.80;3.20;;;;;;;8.07;65.68;100963.53;20912254;28;20068;-70
2021/03/16 15:12:08;;;;;;;4.53;1.80;;;;;;;8.12;64.35;100953.78;20971575;28;20044;-70
2021/03/16 15:22:09;;;;;;;13.13;3.00;;;;;;;8.20;65.11;100949.16;20903232;28;20041;-69
2021/03/16 15:32:11;;;;;;;4.53;1.80;;;;;;;8.05;63.18;100937.50;20956701;28;20102;-68
2021/03/16 15:42:13;;;;;;;7.45;2.30;;;;;;;7.67;62.66;100937.94;20952226;28;20048;-70
2021/03/16 15:52:14;;;;;;;5.20;1.98;;;;;;;7.59;64.07;100925.19;20983480;28;20450;-70
2021/03/16 16:02:15;;;;;;;4.88;2.13;;;;;;;7.64;65.70;100927.66;20971157;28;20120;-69
2021/03/16 16:12:17;;;;;;;7.50;2.65;;;;;;;7.68;65.15;100927.50;20966283;28;20393;-69
2021/03/16 16:22:17;;;;;;;10.52;3.35;;;;;;;7.71;64.51;100926.56;20904768;28;20041;-69
2021/03/16 16:32:20;;;;;;;4.40;2.10;;;;;;;6.81;69.36;100945.03;20910310;28;20053;-69
2021/03/16 16:42:22;;;;;;;5.97;2.47;;;;;;;5.64;83.42;100967.38;20977773;28;20486;-68
2021/03/16 16:52:23;;;;;;;8.82;3.05;;;;;;;5.36;89.59;100960.25;20991592;28;20044;-69
2021/03/16 17:02:24;;;;;;;11.55;3.95;;;;;;;5.39;92.69;100964.50;20993701;28;20037;-69
2021/03/16 17:12:25;;;;;;;8.68;4.20;;;;;;;5.46;92.11;100966.06;20983965;28;20041;-69
2021/03/16 17:22:26;;;;;;;10.07;4.65;;;;;;;5.32;94.67;100973.34;20901140;28;20048;-69
2021/03/16 17:32:27;;;;;;;9.18;4.43;;;;;;;5.06;95.17;100976.53;20948850;28;20140;-69
2021/03/16 17:42:29;;;;;;;10.50;4.65;;;;;;;4.93;95.67;100990.63;20941806;28;20408;-69
2021/03/16 17:52:30;;;;;;;9.65;4.18;;;;;;;4.90;96.06;100991.56;20897956;28;20091;-69
2021/03/16 18:02:31;;;;;;;10.70;4.93;;;;;;;4.86;95.59;100989.94;20900975;28;20040;-68
2021/03/16 18:12:33;;;;;;;10.32;4.50;;;;;;;4.73;94.74;100985.88;20907767;28;20491;-70
2021/03/16 18:22:34;;;;;;;9.95;4.75;;;;;;;4.65;96.07;100988.63;20922598;28;20045;-69
2021/03/16 18:32:35;;;;;;;11.13;4.95;;;;;;;4.72;95.36;100986.78;20910173;28;20045;-69
2021/03/16 18:42:38;;;;;;;11.35;4.22;;;;;;;4.86;95.02;100987.34;20916511;28;20060;-68
2021/03/16 18:52:40;;;;;;;8.85;3.97;;;;;;;4.83;93.45;100977.00;20910982;28;20114;-69
2021/03/16 19:02:44;;;;;;;9.73;3.47;;;;;;;4.79;92.61;100965.00;20918422;28;20497;-69
2021/03/16 19:12:46;;;;;;;8.05;3.35;;;;;;;4.90;91.56;100965.63;20905761;28;20049;-68
2021/03/16 19:22:47;;;;;;;8.00;3.03;;;;;;;4.76;92.10;100972.88;20911041;28;20325;-69
2021/03/16 19:32:48;;;;;;;5.85;2.97;;;;;;;4.77;91.59;100971.97;20909829;28;20056;-70
2021/03/16 19:42:52;;;;;;;4.68;2.38;;;;;;;4.85;90.88;100975.25;20908536;28;20479;-70
2021/03/16 19:52:54;;;;;;;5.25;2.75;;;;;;;4.82;91.01;100966.69;20908674;28;20068;-71
2021/03/16 20:02:55;;;;;;;8.20;2.80;;;;;;;4.81;90.05;100960.66;20905815;28;20079;-70
2021/03/16 20:12:56;;;;;;;7.47;3.25;;;;;;;4.80;89.89;100964.13;20890957;28;20411;-70
2021/03/16 20:22:57;;;;;;;7.55;3.67;;;;;;;4.77;91.07;100974.56;20916473;28;20044;-70
2021/03/16 20:33:02;;;;;;;27.52;11.57;;;;;;;4.88;92.94;100972.56;20951584;28;20053;-70
2021/03/16 20:43:05;;;;;;;8.03;3.53;;;;;;;4.91;93.47;100961.31;20950211;28;20148;-71
2021/03/16 20:53:13;;;;;;;11.43;5.63;;;;;;;4.90;92.46;100981.19;20959070;28;20048;-70
2021/03/16 21:03:15;;;;;;;9.45;5.07;;;;;;;4.86;91.97;100978.69;20952271;28;20044;-70
2021/03/16 21:13:16;;;;;;;9.05;4.68;;;;;;;4.79;93.18;100975.38;20904731;28;20049;-71
2021/03/16 21:23:17;;;;;;;9.15;3.65;;;;;;;4.76;94.43;100972.88;20929050;28;20045;-70
2021/03/16 21:33:19;;;;;;;5.68;2.97;;;;;;;4.69;93.98;100964.34;20927750;28;20716;-70
2021/03/16 21:43:20;;;;;;;7.32;2.90;;;;;;;4.64;94.46;100957.56;20916012;28;20075;-70
2021/03/16 21:53:21;;;;;;;10.43;5.20;;;;;;;4.59;94.64;100952.47;20907772;28;20041;-70
2021/03/16 22:03:22;;;;;;;12.10;6.22;;;;;;;4.59;94.36;100943.84;20914595;28;20052;-70
2021/03/16 22:13:23;;;;;;;6.10;3.28;;;;;;;4.45;94.29;100925.13;20915053;28;20539;-69
2021/03/16 22:23:25;;;;;;;6.35;2.83;;;;;;;4.34;95.79;100932.25;20914690;28;20083;-69
2021/03/16 22:33:26;;;;;;;9.68;4.00;;;;;;;4.29;97.58;100934.94;20913380;28;20045;-70
2021/03/16 22:43:27;;;;;;;8.52;3.80;;;;;;;4.34;97.33;100927.94;20917356;28;20056;-69
2021/03/16 22:53:28;;;;;;;7.72;3.90;;;;;;;4.31;96.79;100922.84;20909786;28;20421;-69
2021/03/16 23:03:29;;;;;;;6.40;2.90;;;;;;;4.21;96.24;100919.56;20923481;28;20043;-69
2021/03/16 23:13:31;;;;;;;8.27;3.70;;;;;;;4.26;96.83;100916.88;20910318;28;20499;-68
2021/03/16 23:23:32;;;;;;;7.43;3.30;;;;;;;4.27;97.87;100908.22;20898510;28;20041;-69
2021/03/16 23:33:36;;;;;;;9.68;4.25;;;;;;;4.26;97.59;100906.53;20894111;28;20106;-69
2021/03/16 23:43:37;;;;;;;9.77;5.22;;;;;;;4.25;96.84;100903.09;20899273;28;20506;-69
2021/03/16 23:53:39;;;;;;;7.57;4.45;;;;;;;4.33;96.28;100897.72;20903874;28;20052;-70
